Crescent City, FL

1:33 AM EST en Enero 28, 2015 (GMT -0500)
Beulah Church Rd,Fruitland | Change Station
CLOSE
Current Station
Estación meteorológica personal
Location: Crescent City, FL
Altura: 45 ft
Estaciones meteorológicas cercanas

Alt 45 ft 29.44 °N, 81.63 °W | Updated 0 second ago

Parcialmente nublado
Parcialmente nublado
44.4 ° F
Sensación térmica 44 ° F
N
0.0
Viento Variable Viento desde NNO
Gusts 1.0 mph

Hoy
Alta -- | Baja -- ° F
--% Posibilidad de precipitaciones
Ayer
Alta -- | Baja -- ° F
Precip. -- pul
7:17 AM 6:00 PM
Cuarto creciente, 61% visible
Presión 30.07 pul
Visibilidad 10.0 Millas
Nubes Despejado
Vientos helados 44 ° F
Punto de rocío 37 ° F
Humedad 76%
Precipitaciones 0.00 pul
Espesor de la nieve No disponible.
UV 0 de una escala de 12
Polen 8.50 de una escala de 12
Calidad del aire No disponible.
Flu Activity No disponible.
METAR KDAB 280553Z 32005KT 10SM CLR 09/03 A3007 RMK AO2 SLP181 T00890033 10144 20089 51013

More Conditions Fewer Conditions

Presión 30.07 pul
Visibilidad 10.0 Millas
Nubes Despejado
Vientos helados 44 ° F
Punto de rocío 37 ° F
Humedad 76%
Precipitaciones 0.00 pul
Espesor de la nieve No disponible.
UV 0 de una escala de 12
Polen 8.50 de una escala de 12
Calidad del aire No disponible.
Flu Activity No disponible.
METAR KDAB 280553Z 32005KT 10SM CLR 09/03 A3007 RMK AO2 SLP181 T00890033 10144 20089 51013

More Conditions Fewer Conditions

10-Day Weather Forecast

Almanac

Astronomía

Jan. 28, 2015 Salida Puesta
Hora real
Crepúsculo civil
Crepúsculo náutico
Crepúsculo astronómico
Luna
Horas de luz
Horas de luz
Tomorrow will be .
, % of the Moon is Illuminated

Extremos de hoy

Máximos del estado Bajos del estado

Community

WunderPhotos

Upload Photos

1,791,112 ¡fotos cargadas!

WunderBlogs® & News

Nearby

Calidad del aire

  Calidad del aire Índice AQ Contaminante
Not available.

Grosos de nieve

Estación Profundido Altura

Actividad de terremotos

Ciudad Distance Mag. Tiempo y dato
Magnitud mínima muestra es 2,5.

Temperaturas de aguas costeras

Lugar Temperatura

Estaciones meteorológicas cercanas